sensor_id;sensor_type;location;lat;lon;timestamp;temperature;humidity
32366;DHT22;18837;46.832;16.838;2022-12-19T00:01:33;2.20;93.80
32366;DHT22;18837;46.832;16.838;2022-12-19T00:04:02;2.20;93.60
32366;DHT22;18837;46.832;16.838;2022-12-19T00:13:06;2.10;94.50
32366;DHT22;18837;46.832;16.838;2022-12-19T00:15:35;2.10;93.90
32366;DHT22;18837;46.832;16.838;2022-12-19T00:18:01;2.20;93.50
32366;DHT22;18837;46.832;16.838;2022-12-19T00:20:27;2.20;93.70
32366;DHT22;18837;46.832;16.838;2022-12-19T00:22:52;2.10;93.60
32366;DHT22;18837;46.832;16.838;2022-12-19T00:25:38;2.10;93.50
32366;DHT22;18837;46.832;16.838;2022-12-19T00:28:04;2.00;94.50
32366;DHT22;18837;46.832;16.838;2022-12-19T00:30:30;2.00;93.70
32366;DHT22;18837;46.832;16.838;2022-12-19T00:32:56;2.10;93.80
32366;DHT22;18837;46.832;16.838;2022-12-19T00:35:21;2.10;93.90
32366;DHT22;18837;46.832;16.838;2022-12-19T00:37:47;2.10;93.90
32366;DHT22;18837;46.832;16.838;2022-12-19T00:46:57;2.00;94.30
32366;DHT22;18837;46.832;16.838;2022-12-19T00:49:23;2.10;93.70
32366;DHT22;18837;46.832;16.838;2022-12-19T00:51:49;2.10;93.60
32366;DHT22;18837;46.832;16.838;2022-12-19T00:54:14;2.10;93.60
32366;DHT22;18837;46.832;16.838;2022-12-19T00:56:40;2.00;93.60
32366;DHT22;18837;46.832;16.838;2022-12-19T01:02:16;2.00;94.40
32366;DHT22;18837;46.832;16.838;2022-12-19T01:04:42;2.00;93.60
32366;DHT22;18837;46.832;16.838;2022-12-19T01:07:08;2.00;93.80
32366;DHT22;18837;46.832;16.838;2022-12-19T01:09:35;2.00;93.60
32366;DHT22;18837;46.832;16.838;2022-12-19T01:12:03;2.00;93.50
32366;DHT22;18837;46.832;16.838;2022-12-19T01:21:30;2.00;94.40
32366;DHT22;18837;46.832;16.838;2022-12-19T01:23:56;2.00;93.50
32366;DHT22;18837;46.832;16.838;2022-12-19T01:26:21;1.90;93.40
32366;DHT22;18837;46.832;16.838;2022-12-19T01:28:47;2.00;93.40
32366;DHT22;18837;46.832;16.838;2022-12-19T01:31:13;2.00;93.40
32366;DHT22;18837;46.832;16.838;2022-12-19T01:33:40;1.90;93.80
32366;DHT22;18837;46.832;16.838;2022-12-19T01:36:07;1.90;93.70
32366;DHT22;18837;46.832;16.838;2022-12-19T01:38:34;2.00;93.30
32366;DHT22;18837;46.832;16.838;2022-12-19T01:41:01;1.90;93.10
32366;DHT22;18837;46.832;16.838;2022-12-19T01:43:29;1.90;93.10
32366;DHT22;18837;46.832;16.838;2022-12-19T01:46:00;1.90;93.20
32366;DHT22;18837;46.832;16.838;2022-12-19T01:58:21;1.80;94.30
32366;DHT22;18837;46.832;16.838;2022-12-19T02:00:47;1.90;93.50
32366;DHT22;18837;46.832;16.838;2022-12-19T02:03:27;1.90;93.60
32366;DHT22;18837;46.832;16.838;2022-12-19T02:05:54;1.90;94.50
32366;DHT22;18837;46.832;16.838;2022-12-19T02:08:22;1.80;93.70
32366;DHT22;18837;46.832;16.838;2022-12-19T02:14:30;1.90;94.50
32366;DHT22;18837;46.832;16.838;2022-12-19T02:23:11;1.90;94.60
32366;DHT22;18837;46.832;16.838;2022-12-19T02:33:04;1.80;94.40
32366;DHT22;18837;46.832;16.838;2022-12-19T02:36:00;1.90;94.60
32366;DHT22;18837;46.832;16.838;2022-12-19T02:38:51;1.80;94.50
32366;DHT22;18837;46.832;16.838;2022-12-19T02:41:56;1.90;94.60
32366;DHT22;18837;46.832;16.838;2022-12-19T02:47:38;1.90;94.60
32366;DHT22;18837;46.832;16.838;2022-12-19T02:50:10;1.90;94.60
32366;DHT22;18837;46.832;16.838;2022-12-19T02:55:16;1.90;93.00
32366;DHT22;18837;46.832;16.838;2022-12-19T03:11:34;1.90;94.80
32366;DHT22;18837;46.832;16.838;2022-12-19T03:14:14;1.90;95.10
32366;DHT22;18837;46.832;16.838;2022-12-19T03:16:44;1.80;95.30
32366;DHT22;18837;46.832;16.838;2022-12-19T03:19:13;1.80;94.70
32366;DHT22;18837;46.832;16.838;2022-12-19T03:21:49;1.80;95.20
32366;DHT22;18837;46.832;16.838;2022-12-19T03:24:15;1.90;94.10
32366;DHT22;18837;46.832;16.838;2022-12-19T03:27:06;1.90;93.80
32366;DHT22;18837;46.832;16.838;2022-12-19T03:29:44;1.90;94.30
32366;DHT22;18837;46.832;16.838;2022-12-19T03:32:13;1.90;93.90
32366;DHT22;18837;46.832;16.838;2022-12-19T03:34:56;1.90;94.00
32366;DHT22;18837;46.832;16.838;2022-12-19T03:37:29;1.90;95.20
32366;DHT22;18837;46.832;16.838;2022-12-19T03:39:59;1.90;95.10
32366;DHT22;18837;46.832;16.838;2022-12-19T03:42:28;1.90;94.10
32366;DHT22;18837;46.832;16.838;2022-12-19T03:45:17;1.90;94.10
32366;DHT22;18837;46.832;16.838;2022-12-19T03:47:50;1.90;93.70
32366;DHT22;18837;46.832;16.838;2022-12-19T03:50:38;1.90;93.90
32366;DHT22;18837;46.832;16.838;2022-12-19T03:53:36;1.90;95.10
32366;DHT22;18837;46.832;16.838;2022-12-19T03:56:45;1.90;95.20
32366;DHT22;18837;46.832;16.838;2022-12-19T03:59:22;1.90;95.30
32366;DHT22;18837;46.832;16.838;2022-12-19T04:01:53;1.90;95.00
32366;DHT22;18837;46.832;16.838;2022-12-19T04:04:20;1.90;95.10
32366;DHT22;18837;46.832;16.838;2022-12-19T04:06:53;1.90;93.90
32366;DHT22;18837;46.832;16.838;2022-12-19T04:09:21;1.90;93.90
32366;DHT22;18837;46.832;16.838;2022-12-19T04:11:52;1.90;94.00
32366;DHT22;18837;46.832;16.838;2022-12-19T04:14:31;1.90;94.10
32366;DHT22;18837;46.832;16.838;2022-12-19T04:19:41;1.90;95.30
32366;DHT22;18837;46.832;16.838;2022-12-19T04:24:58;1.90;95.30
32366;DHT22;18837;46.832;16.838;2022-12-19T04:27:26;1.90;94.10
32366;DHT22;18837;46.832;16.838;2022-12-19T04:29:55;1.90;94.30
32366;DHT22;18837;46.832;16.838;2022-12-19T04:32:24;1.90;94.50
32366;DHT22;18837;46.832;16.838;2022-12-19T04:34:50;1.90;94.50
32366;DHT22;18837;46.832;16.838;2022-12-19T04:37:15;1.80;94.90
32366;DHT22;18837;46.832;16.838;2022-12-19T04:39:44;1.80;94.90
32366;DHT22;18837;46.832;16.838;2022-12-19T04:42:09;1.80;95.30
32366;DHT22;18837;46.832;16.838;2022-12-19T04:44:35;1.70;95.40
32366;DHT22;18837;46.832;16.838;2022-12-19T04:47:01;1.80;95.40
32366;DHT22;18837;46.832;16.838;2022-12-19T04:49:27;1.80;95.10
32366;DHT22;18837;46.832;16.838;2022-12-19T04:51:53;1.80;95.20
32366;DHT22;18837;46.832;16.838;2022-12-19T04:54:19;1.90;95.90
32366;DHT22;18837;46.832;16.838;2022-12-19T04:56:45;1.90;95.20
32366;DHT22;18837;46.832;16.838;2022-12-19T04:59:11;1.80;95.30
32366;DHT22;18837;46.832;16.838;2022-12-19T05:01:40;1.90;95.20
32366;DHT22;18837;46.832;16.838;2022-12-19T05:04:05;1.90;95.80
32366;DHT22;18837;46.832;16.838;2022-12-19T05:06:31;1.80;95.30
32366;DHT22;18837;46.832;16.838;2022-12-19T05:08:57;1.90;95.50
32366;DHT22;18837;46.832;16.838;2022-12-19T05:11:22;1.90;95.30
32366;DHT22;18837;46.832;16.838;2022-12-19T05:13:48;1.90;95.20
32366;DHT22;18837;46.832;16.838;2022-12-19T05:16:15;1.90;95.20
32366;DHT22;18837;46.832;16.838;2022-12-19T05:18:41;1.90;95.20
32366;DHT22;18837;46.832;16.838;2022-12-19T05:21:07;1.90;95.30
32366;DHT22;18837;46.832;16.838;2022-12-19T05:23:33;1.90;95.40
32366;DHT22;18837;46.832;16.838;2022-12-19T05:26:00;1.90;95.20
32366;DHT22;18837;46.832;16.838;2022-12-19T05:28:26;1.90;95.00
32366;DHT22;18837;46.832;16.838;2022-12-19T05:31:02;1.90;95.00
32366;DHT22;18837;46.832;16.838;2022-12-19T05:33:28;1.90;95.20
32366;DHT22;18837;46.832;16.838;2022-12-19T05:35:54;1.90;95.30
32366;DHT22;18837;46.832;16.838;2022-12-19T05:38:20;1.80;95.40
32366;DHT22;18837;46.832;16.838;2022-12-19T05:40:45;1.80;95.40
32366;DHT22;18837;46.832;16.838;2022-12-19T05:43:11;1.80;95.40
32366;DHT22;18837;46.832;16.838;2022-12-19T05:45:38;1.80;95.40
32366;DHT22;18837;46.832;16.838;2022-12-19T05:48:04;1.90;95.30
32366;DHT22;18837;46.832;16.838;2022-12-19T05:50:30;1.90;95.60
32366;DHT22;18837;46.832;16.838;2022-12-19T05:52:56;1.80;95.60
32366;DHT22;18837;46.832;16.838;2022-12-19T05:55:22;1.80;95.50
32366;DHT22;18837;46.832;16.838;2022-12-19T05:57:48;1.80;95.60
32366;DHT22;18837;46.832;16.838;2022-12-19T06:00:14;1.80;95.40
32366;DHT22;18837;46.832;16.838;2022-12-19T06:02:41;1.70;95.60
32366;DHT22;18837;46.832;16.838;2022-12-19T06:05:12;1.70;95.60
32366;DHT22;18837;46.832;16.838;2022-12-19T06:07:38;1.70;96.00
32366;DHT22;18837;46.832;16.838;2022-12-19T06:10:05;1.70;96.00
32366;DHT22;18837;46.832;16.838;2022-12-19T06:12:31;1.70;95.80
32366;DHT22;18837;46.832;16.838;2022-12-19T06:14:56;1.70;95.80
32366;DHT22;18837;46.832;16.838;2022-12-19T06:17:22;1.80;95.90
32366;DHT22;18837;46.832;16.838;2022-12-19T06:19:48;1.80;95.60
32366;DHT22;18837;46.832;16.838;2022-12-19T06:22:14;1.80;95.70
32366;DHT22;18837;46.832;16.838;2022-12-19T06:24:40;1.80;95.60
32366;DHT22;18837;46.832;16.838;2022-12-19T06:27:06;1.70;95.70
32366;DHT22;18837;46.832;16.838;2022-12-19T06:29:31;1.80;95.70
32366;DHT22;18837;46.832;16.838;2022-12-19T06:31:57;1.80;95.80
32366;DHT22;18837;46.832;16.838;2022-12-19T06:34:23;1.80;95.70
32366;DHT22;18837;46.832;16.838;2022-12-19T06:36:48;1.70;95.80
32366;DHT22;18837;46.832;16.838;2022-12-19T06:39:14;1.80;96.00
32366;DHT22;18837;46.832;16.838;2022-12-19T06:41:44;1.70;96.00
32366;DHT22;18837;46.832;16.838;2022-12-19T06:44:33;1.70;96.20
32366;DHT22;18837;46.832;16.838;2022-12-19T06:46:59;1.80;96.30
32366;DHT22;18837;46.832;16.838;2022-12-19T06:49:25;1.80;95.70
32366;DHT22;18837;46.832;16.838;2022-12-19T06:51:50;1.70;96.00
32366;DHT22;18837;46.832;16.838;2022-12-19T06:54:16;1.70;96.00
32366;DHT22;18837;46.832;16.838;2022-12-19T06:56:43;1.80;96.00
32366;DHT22;18837;46.832;16.838;2022-12-19T06:59:11;1.80;95.90
32366;DHT22;18837;46.832;16.838;2022-12-19T07:01:51;1.70;95.70
32366;DHT22;18837;46.832;16.838;2022-12-19T07:04:24;1.70;96.30
32366;DHT22;18837;46.832;16.838;2022-12-19T07:06:51;1.70;96.10
32366;DHT22;18837;46.832;16.838;2022-12-19T07:09:17;1.70;95.90
32366;DHT22;18837;46.832;16.838;2022-12-19T07:11:43;1.70;96.00
32366;DHT22;18837;46.832;16.838;2022-12-19T07:14:08;1.80;95.80
32366;DHT22;18837;46.832;16.838;2022-12-19T07:16:34;1.70;96.00
32366;DHT22;18837;46.832;16.838;2022-12-19T07:19:00;1.70;96.00
32366;DHT22;18837;46.832;16.838;2022-12-19T07:21:26;1.70;96.10
32366;DHT22;18837;46.832;16.838;2022-12-19T07:23:52;1.70;96.20
32366;DHT22;18837;46.832;16.838;2022-12-19T07:26:18;1.60;96.30
32366;DHT22;18837;46.832;16.838;2022-12-19T07:28:43;1.60;96.20
32366;DHT22;18837;46.832;16.838;2022-12-19T07:31:09;1.60;96.30
32366;DHT22;18837;46.832;16.838;2022-12-19T07:33:35;1.70;96.30
32366;DHT22;18837;46.832;16.838;2022-12-19T07:36:01;1.70;96.30
32366;DHT22;18837;46.832;16.838;2022-12-19T07:38:26;1.70;96.20
32366;DHT22;18837;46.832;16.838;2022-12-19T07:40:52;1.70;96.20
32366;DHT22;18837;46.832;16.838;2022-12-19T07:43:18;1.70;96.00
32366;DHT22;18837;46.832;16.838;2022-12-19T07:45:44;1.70;95.80
32366;DHT22;18837;46.832;16.838;2022-12-19T07:48:09;1.70;95.80
32366;DHT22;18837;46.832;16.838;2022-12-19T07:50:35;1.70;95.90
32366;DHT22;18837;46.832;16.838;2022-12-19T07:53:01;1.70;95.90
32366;DHT22;18837;46.832;16.838;2022-12-19T07:55:27;1.70;95.90
32366;DHT22;18837;46.832;16.838;2022-12-19T07:57:54;1.70;95.80
32366;DHT22;18837;46.832;16.838;2022-12-19T08:00:22;1.70;95.80
32366;DHT22;18837;46.832;16.838;2022-12-19T08:02:48;1.70;96.30
32366;DHT22;18837;46.832;16.838;2022-12-19T08:05:16;1.70;95.90
32366;DHT22;18837;46.832;16.838;2022-12-19T08:07:41;1.70;96.20
32366;DHT22;18837;46.832;16.838;2022-12-19T08:10:07;1.80;96.00
32366;DHT22;18837;46.832;16.838;2022-12-19T08:12:35;1.70;96.20
32366;DHT22;18837;46.832;16.838;2022-12-19T08:15:01;1.70;96.20
32366;DHT22;18837;46.832;16.838;2022-12-19T08:17:27;1.70;96.00
32366;DHT22;18837;46.832;16.838;2022-12-19T08:19:53;1.70;95.90
32366;DHT22;18837;46.832;16.838;2022-12-19T08:22:18;1.60;96.10
32366;DHT22;18837;46.832;16.838;2022-12-19T08:24:44;1.70;96.10
32366;DHT22;18837;46.832;16.838;2022-12-19T08:27:10;1.70;96.20
32366;DHT22;18837;46.832;16.838;2022-12-19T08:29:36;1.80;96.00
32366;DHT22;18837;46.832;16.838;2022-12-19T08:32:01;1.80;95.90
32366;DHT22;18837;46.832;16.838;2022-12-19T08:34:27;1.70;95.90
32366;DHT22;18837;46.832;16.838;2022-12-19T08:36:53;1.70;95.90
32366;DHT22;18837;46.832;16.838;2022-12-19T08:39:18;1.60;96.00
32366;DHT22;18837;46.832;16.838;2022-12-19T08:41:44;1.60;96.50
32366;DHT22;18837;46.832;16.838;2022-12-19T08:44:10;1.70;96.40
32366;DHT22;18837;46.832;16.838;2022-12-19T08:46:37;1.60;96.50
32366;DHT22;18837;46.832;16.838;2022-12-19T08:49:03;1.60;96.50
32366;DHT22;18837;46.832;16.838;2022-12-19T08:51:29;1.60;96.60
32366;DHT22;18837;46.832;16.838;2022-12-19T08:53:55;1.60;96.50
32366;DHT22;18837;46.832;16.838;2022-12-19T08:56:21;1.60;96.60
32366;DHT22;18837;46.832;16.838;2022-12-19T08:58:49;1.60;96.60
32366;DHT22;18837;46.832;16.838;2022-12-19T09:01:19;1.60;96.50
32366;DHT22;18837;46.832;16.838;2022-12-19T09:03:46;1.60;96.80
32366;DHT22;18837;46.832;16.838;2022-12-19T09:06:13;1.70;96.60
32366;DHT22;18837;46.832;16.838;2022-12-19T09:08:41;1.70;96.50
32366;DHT22;18837;46.832;16.838;2022-12-19T09:11:09;1.70;96.50
32366;DHT22;18837;46.832;16.838;2022-12-19T09:13:36;1.80;96.40
32366;DHT22;18837;46.832;16.838;2022-12-19T09:16:15;1.70;96.40
32366;DHT22;18837;46.832;16.838;2022-12-19T09:18:43;1.70;96.50
32366;DHT22;18837;46.832;16.838;2022-12-19T09:21:09;1.70;96.50
32366;DHT22;18837;46.832;16.838;2022-12-19T09:23:36;1.70;96.50
32366;DHT22;18837;46.832;16.838;2022-12-19T09:26:04;1.70;96.60
32366;DHT22;18837;46.832;16.838;2022-12-19T09:28:30;1.70;96.50
32366;DHT22;18837;46.832;16.838;2022-12-19T09:31:05;1.70;96.50
32366;DHT22;18837;46.832;16.838;2022-12-19T09:33:34;1.70;96.60
32366;DHT22;18837;46.832;16.838;2022-12-19T09:36:00;1.90;96.60
32366;DHT22;18837;46.832;16.838;2022-12-19T09:38:28;1.70;96.50
32366;DHT22;18837;46.832;16.838;2022-12-19T09:46:26;1.70;96.90
32366;DHT22;18837;46.832;16.838;2022-12-19T09:49:00;1.70;96.60
32366;DHT22;18837;46.832;16.838;2022-12-19T09:51:37;1.90;96.70
32366;DHT22;18837;46.832;16.838;2022-12-19T09:54:13;2.10;97.10
32366;DHT22;18837;46.832;16.838;2022-12-19T09:56:43;1.70;96.60
32366;DHT22;18837;46.832;16.838;2022-12-19T10:02:03;1.70;97.00
32366;DHT22;18837;46.832;16.838;2022-12-19T10:04:47;1.60;96.70
32366;DHT22;18837;46.832;16.838;2022-12-19T10:07:14;1.90;96.80
32366;DHT22;18837;46.832;16.838;2022-12-19T10:09:42;1.70;96.70
32366;DHT22;18837;46.832;16.838;2022-12-19T10:14:50;1.60;96.90
32366;DHT22;18837;46.832;16.838;2022-12-19T10:17:29;1.60;97.10
32366;DHT22;18837;46.832;16.838;2022-12-19T10:27:57;1.70;97.30
32366;DHT22;18837;46.832;16.838;2022-12-19T10:30:27;1.70;97.20
32366;DHT22;18837;46.832;16.838;2022-12-19T10:35:34;1.70;96.90
32366;DHT22;18837;46.832;16.838;2022-12-19T10:38:34;1.70;97.30
32366;DHT22;18837;46.832;16.838;2022-12-19T10:41:15;1.70;97.30
32366;DHT22;18837;46.832;16.838;2022-12-19T10:48:50;1.70;97.20
32366;DHT22;18837;46.832;16.838;2022-12-19T10:51:23;1.50;96.70
32366;DHT22;18837;46.832;16.838;2022-12-19T10:53:58;2.20;97.00
32366;DHT22;18837;46.832;16.838;2022-12-19T10:56:27;1.70;96.80
32366;DHT22;18837;46.832;16.838;2022-12-19T10:58:55;1.70;96.90
32366;DHT22;18837;46.832;16.838;2022-12-19T11:01:39;1.70;96.80
32366;DHT22;18837;46.832;16.838;2022-12-19T11:07:17;1.60;97.00
32366;DHT22;18837;46.832;16.838;2022-12-19T11:09:43;1.60;97.40
32366;DHT22;18837;46.832;16.838;2022-12-19T11:12:15;1.70;97.00
32366;DHT22;18837;46.832;16.838;2022-12-19T11:17:38;1.60;97.00
32366;DHT22;18837;46.832;16.838;2022-12-19T11:22:37;1.60;97.20
32366;DHT22;18837;46.832;16.838;2022-12-19T11:25:04;1.60;96.90
32366;DHT22;18837;46.832;16.838;2022-12-19T11:30:27;1.70;97.20
32366;DHT22;18837;46.832;16.838;2022-12-19T11:33:12;1.70;97.20
32366;DHT22;18837;46.832;16.838;2022-12-19T11:36:05;1.70;97.00
32366;DHT22;18837;46.832;16.838;2022-12-19T11:38:41;1.80;97.10
32366;DHT22;18837;46.832;16.838;2022-12-19T11:41:21;1.80;97.40
32366;DHT22;18837;46.832;16.838;2022-12-19T11:44:05;1.80;96.90
32366;DHT22;18837;46.832;16.838;2022-12-19T11:46:48;1.80;97.10
32366;DHT22;18837;46.832;16.838;2022-12-19T11:54:54;1.80;97.20
32366;DHT22;18837;46.832;16.838;2022-12-19T11:57:21;1.80;96.80
32366;DHT22;18837;46.832;16.838;2022-12-19T11:59:47;1.80;96.80
32366;DHT22;18837;46.832;16.838;2022-12-19T12:07:45;1.80;97.00
32366;DHT22;18837;46.832;16.838;2022-12-19T12:10:18;1.80;96.90
32366;DHT22;18837;46.832;16.838;2022-12-19T12:21:28;1.80;97.20
32366;DHT22;18837;46.832;16.838;2022-12-19T12:30:00;1.80;97.30
32366;DHT22;18837;46.832;16.838;2022-12-19T12:35:38;1.90;97.00
32366;DHT22;18837;46.832;16.838;2022-12-19T12:46:23;1.80;97.40
32366;DHT22;18837;46.832;16.838;2022-12-19T12:51:20;1.90;97.30
32366;DHT22;18837;46.832;16.838;2022-12-19T12:53:48;1.90;97.10
32366;DHT22;18837;46.832;16.838;2022-12-19T12:56:20;1.90;97.00
32366;DHT22;18837;46.832;16.838;2022-12-19T13:01:40;1.90;96.90
32366;DHT22;18837;46.832;16.838;2022-12-19T13:04:20;1.90;97.50
32366;DHT22;18837;46.832;16.838;2022-12-19T13:09:27;1.90;96.90
32366;DHT22;18837;46.832;16.838;2022-12-19T13:12:19;1.90;97.30
32366;DHT22;18837;46.832;16.838;2022-12-19T13:25:53;1.90;97.30
32366;DHT22;18837;46.832;16.838;2022-12-19T13:36:49;1.90;97.50
32366;DHT22;18837;46.832;16.838;2022-12-19T13:40:19;1.90;97.50
32366;DHT22;18837;46.832;16.838;2022-12-19T13:42:56;1.90;97.50
32366;DHT22;18837;46.832;16.838;2022-12-19T13:45:58;1.90;97.00
32366;DHT22;18837;46.832;16.838;2022-12-19T13:48:32;2.00;97.00
32366;DHT22;18837;46.832;16.838;2022-12-19T13:51:04;1.90;97.00
32366;DHT22;18837;46.832;16.838;2022-12-19T13:53:30;1.90;97.10
32366;DHT22;18837;46.832;16.838;2022-12-19T13:56:02;1.90;97.10
32366;DHT22;18837;46.832;16.838;2022-12-19T13:58:55;1.90;97.10
32366;DHT22;18837;46.832;16.838;2022-12-19T14:01:28;1.90;97.70
32366;DHT22;18837;46.832;16.838;2022-12-19T14:03:57;1.90;97.80
32366;DHT22;18837;46.832;16.838;2022-12-19T14:06:24;1.90;97.30
32366;DHT22;18837;46.832;16.838;2022-12-19T14:08:54;1.90;97.30
32366;DHT22;18837;46.832;16.838;2022-12-19T14:11:22;1.90;97.80
32366;DHT22;18837;46.832;16.838;2022-12-19T14:13:51;1.90;97.30
32366;DHT22;18837;46.832;16.838;2022-12-19T14:16:38;1.90;97.20
32366;DHT22;18837;46.832;16.838;2022-12-19T14:19:25;1.90;97.10
32366;DHT22;18837;46.832;16.838;2022-12-19T14:25:03;1.90;97.50
32366;DHT22;18837;46.832;16.838;2022-12-19T14:27:39;1.90;97.50
32366;DHT22;18837;46.832;16.838;2022-12-19T14:30:14;1.90;97.00
32366;DHT22;18837;46.832;16.838;2022-12-19T14:32:40;1.90;97.10
32366;DHT22;18837;46.832;16.838;2022-12-19T14:35:09;1.90;97.00
32366;DHT22;18837;46.832;16.838;2022-12-19T14:37:42;1.90;97.20
32366;DHT22;18837;46.832;16.838;2022-12-19T14:40:22;1.90;97.10
32366;DHT22;18837;46.832;16.838;2022-12-19T14:42:50;1.90;97.10
32366;DHT22;18837;46.832;16.838;2022-12-19T14:45:41;1.90;97.10
32366;DHT22;18837;46.832;16.838;2022-12-19T14:56:45;2.00;97.60
32366;DHT22;18837;46.832;16.838;2022-12-19T14:59:28;2.00;97.60
32366;DHT22;18837;46.832;16.838;2022-12-19T15:04:58;2.00;97.60
32366;DHT22;18837;46.832;16.838;2022-12-19T15:07:31;2.00;97.50
32366;DHT22;18837;46.832;16.838;2022-12-19T15:13:02;2.00;97.60
32366;DHT22;18837;46.832;16.838;2022-12-19T15:15:54;2.00;97.20
32366;DHT22;18837;46.832;16.838;2022-12-19T15:20:47;1.90;97.40
32366;DHT22;18837;46.832;16.838;2022-12-19T15:23:13;1.90;97.30
32366;DHT22;18837;46.832;16.838;2022-12-19T15:25:39;1.90;97.40
32366;DHT22;18837;46.832;16.838;2022-12-19T15:28:15;1.90;97.50
32366;DHT22;18837;46.832;16.838;2022-12-19T15:30:45;1.90;97.80
32366;DHT22;18837;46.832;16.838;2022-12-19T15:33:15;2.00;97.20
32366;DHT22;18837;46.832;16.838;2022-12-19T15:35:43;1.90;97.20
32366;DHT22;18837;46.832;16.838;2022-12-19T15:38:09;1.90;97.30
32366;DHT22;18837;46.832;16.838;2022-12-19T15:40:37;1.90;97.40
32366;DHT22;18837;46.832;16.838;2022-12-19T15:43:05;1.90;97.30
32366;DHT22;18837;46.832;16.838;2022-12-19T15:45:31;1.90;97.40
32366;DHT22;18837;46.832;16.838;2022-12-19T15:47:59;2.00;97.30
32366;DHT22;18837;46.832;16.838;2022-12-19T15:50:28;1.90;97.60
32366;DHT22;18837;46.832;16.838;2022-12-19T15:52:59;2.00;97.20
32366;DHT22;18837;46.832;16.838;2022-12-19T15:55:30;2.00;97.20
32366;DHT22;18837;46.832;16.838;2022-12-19T15:58:01;2.00;97.40
32366;DHT22;18837;46.832;16.838;2022-12-19T16:00:34;2.00;97.20
32366;DHT22;18837;46.832;16.838;2022-12-19T16:03:00;2.00;97.70
32366;DHT22;18837;46.832;16.838;2022-12-19T16:05:28;2.00;97.40
32366;DHT22;18837;46.832;16.838;2022-12-19T16:07:54;2.00;97.00
32366;DHT22;18837;46.832;16.838;2022-12-19T16:10:25;2.00;97.10
32366;DHT22;18837;46.832;16.838;2022-12-19T16:12:54;2.00;97.60
32366;DHT22;18837;46.832;16.838;2022-12-19T16:17:46;2.00;97.30
32366;DHT22;18837;46.832;16.838;2022-12-19T16:20:17;2.00;97.30
32366;DHT22;18837;46.832;16.838;2022-12-19T16:22:45;2.00;97.30
32366;DHT22;18837;46.832;16.838;2022-12-19T16:25:13;2.00;97.20
32366;DHT22;18837;46.832;16.838;2022-12-19T16:27:42;2.00;97.20
32366;DHT22;18837;46.832;16.838;2022-12-19T16:30:20;2.00;97.60
32366;DHT22;18837;46.832;16.838;2022-12-19T16:32:47;2.00;97.20
32366;DHT22;18837;46.832;16.838;2022-12-19T16:35:19;1.90;97.40
32366;DHT22;18837;46.832;16.838;2022-12-19T16:37:48;1.90;97.50
32366;DHT22;18837;46.832;16.838;2022-12-19T16:40:20;1.80;97.60
32366;DHT22;18837;46.832;16.838;2022-12-19T16:42:47;1.90;97.90
32366;DHT22;18837;46.832;16.838;2022-12-19T16:45:23;1.90;97.60
32366;DHT22;18837;46.832;16.838;2022-12-19T16:47:49;1.90;97.50
32366;DHT22;18837;46.832;16.838;2022-12-19T16:50:22;1.90;97.00
32366;DHT22;18837;46.832;16.838;2022-12-19T16:52:52;1.90;97.20
32366;DHT22;18837;46.832;16.838;2022-12-19T16:55:18;1.90;97.50
32366;DHT22;18837;46.832;16.838;2022-12-19T16:57:47;1.90;97.10
32366;DHT22;18837;46.832;16.838;2022-12-19T17:00:18;1.90;97.20
32366;DHT22;18837;46.832;16.838;2022-12-19T17:02:54;1.80;97.30
32366;DHT22;18837;46.832;16.838;2022-12-19T17:05:30;1.80;97.30
32366;DHT22;18837;46.832;16.838;2022-12-19T17:07:56;1.90;97.90
32366;DHT22;18837;46.832;16.838;2022-12-19T17:10:30;1.80;97.40
32366;DHT22;18837;46.832;16.838;2022-12-19T17:12:58;1.80;97.40
32366;DHT22;18837;46.832;16.838;2022-12-19T17:15:29;1.80;97.40
32366;DHT22;18837;46.832;16.838;2022-12-19T17:18:25;1.80;97.50
32366;DHT22;18837;46.832;16.838;2022-12-19T17:20:46;1.80;97.90
32366;DHT22;18837;46.832;16.838;2022-12-19T17:23:20;1.80;97.40
32366;DHT22;18837;46.832;16.838;2022-12-19T17:25:47;1.80;97.40
32366;DHT22;18837;46.832;16.838;2022-12-19T17:28:14;1.90;97.60
32366;DHT22;18837;46.832;16.838;2022-12-19T17:30:42;2.00;98.00
32366;DHT22;18837;46.832;16.838;2022-12-19T17:33:16;2.20;98.00
32366;DHT22;18837;46.832;16.838;2022-12-19T17:35:46;2.30;98.60
32366;DHT22;18837;46.832;16.838;2022-12-19T17:38:16;2.40;97.80
32366;DHT22;18837;46.832;16.838;2022-12-19T17:40:43;2.60;98.10
32366;DHT22;18837;46.832;16.838;2022-12-19T17:43:14;2.70;97.50
32366;DHT22;18837;46.832;16.838;2022-12-19T17:45:43;2.90;97.60
32366;DHT22;18837;46.832;16.838;2022-12-19T17:48:30;3.00;97.20
32366;DHT22;18837;46.832;16.838;2022-12-19T17:50:57;3.10;96.90
32366;DHT22;18837;46.832;16.838;2022-12-19T17:53:24;3.10;96.70
32366;DHT22;18837;46.832;16.838;2022-12-19T17:55:51;3.20;96.70
32366;DHT22;18837;46.832;16.838;2022-12-19T17:58:19;3.30;96.70
32366;DHT22;18837;46.832;16.838;2022-12-19T18:00:49;3.30;96.50
32366;DHT22;18837;46.832;16.838;2022-12-19T18:03:19;3.40;96.70
32366;DHT22;18837;46.832;16.838;2022-12-19T18:05:46;3.40;96.30
32366;DHT22;18837;46.832;16.838;2022-12-19T18:08:30;3.50;96.20
32366;DHT22;18837;46.832;16.838;2022-12-19T18:11:02;3.50;96.10
32366;DHT22;18837;46.832;16.838;2022-12-19T18:13:30;3.50;96.40
32366;DHT22;18837;46.832;16.838;2022-12-19T18:15:58;3.50;96.20
32366;DHT22;18837;46.832;16.838;2022-12-19T18:18:30;3.50;96.00
32366;DHT22;18837;46.832;16.838;2022-12-19T18:21:09;3.60;96.10
32366;DHT22;18837;46.832;16.838;2022-12-19T18:23:39;3.50;96.30
32366;DHT22;18837;46.832;16.838;2022-12-19T18:26:05;3.50;96.00
32366;DHT22;18837;46.832;16.838;2022-12-19T18:28:31;3.50;96.00
32366;DHT22;18837;46.832;16.838;2022-12-19T18:31:09;3.50;96.00
32366;DHT22;18837;46.832;16.838;2022-12-19T18:33:40;3.50;96.00
32366;DHT22;18837;46.832;16.838;2022-12-19T18:36:10;3.60;96.00
32366;DHT22;18837;46.832;16.838;2022-12-19T18:38:39;3.60;95.90
32366;DHT22;18837;46.832;16.838;2022-12-19T18:41:10;3.60;96.00
32366;DHT22;18837;46.832;16.838;2022-12-19T18:43:36;3.60;95.80
32366;DHT22;18837;46.832;16.838;2022-12-19T18:46:03;3.60;95.80
32366;DHT22;18837;46.832;16.838;2022-12-19T18:48:35;3.40;95.70
32366;DHT22;18837;46.832;16.838;2022-12-19T18:51:04;3.60;95.80
32366;DHT22;18837;46.832;16.838;2022-12-19T18:53:31;3.60;96.00
32366;DHT22;18837;46.832;16.838;2022-12-19T18:55:58;3.60;95.80
32366;DHT22;18837;46.832;16.838;2022-12-19T18:58:25;3.60;95.90
32366;DHT22;18837;46.832;16.838;2022-12-19T19:00:52;3.60;95.90
32366;DHT22;18837;46.832;16.838;2022-12-19T19:03:25;3.60;95.90
32366;DHT22;18837;46.832;16.838;2022-12-19T19:05:53;3.60;96.10
32366;DHT22;18837;46.832;16.838;2022-12-19T19:08:27;3.60;95.90
32366;DHT22;18837;46.832;16.838;2022-12-19T19:10:54;3.60;95.90